avis per tempestes more information blitzortung!


avis per Pluja more information rain snow radar


Visita la nostra xarxa de llocs de meteo:

Template documentation
and downloads

And another site



Thunderstorms From: 18-09-2018 09:00 Until: 19-09-2018 20:59 warning for: Thunderstorms Level: Yellow info button
Rain From: 18-09-2018 09:00 Until: 19-09-2018 20:59 warning for: Rain Level: Yellow info button

Pagina Historial Weather Underground text

Diari Resum Octubre 11, 2017 Unitats:  Imperial    Mètric   Tant
« Previous Dia
SegĂźent Dia »
Diari Setmana Mensual Anual Personalitzada
  Maxima: Minima: Media:
Temperatura: TemperatureC °F 13.3 °F 20.4 °F
Punt de rosada: DewpointC °F 11.7 °F 15.1 °F
Humitat: Humidity % 53 % 73 %
Wind Speed: WindSpeedKMH mph 0.0 mph 5.6 mph
RĂ fegues de vent: WindSpeedGustKMH mph - -
Vent:- - SW
Pression baro: PressurehPa in 1020.9 in -
Precipitacions: 0.0 in    
Historical Graphs
 
 
Dades de taula per Octubre 11, 2017
Temps Temperatura Punt de rosada Pression baro Vent Wind Speed RĂ fegues de vent Humitat Rainfall Rate (Hourly)
TemperatureC °F DewpointC °F PressurehPa in Calm     Humidity % HourlyPrecipMM in
00:00 15.0 °F 13.0 °F 1021.9 in Calm   1.6 mph 88 % 0.0 in
00:02 17.8 °F 14.9 °F 1021.9 in Calm     83 % 0.0 in
00:07 17.7 °F 14.8 °F 1021.9 in Calm     83 % 0.0 in
00:10 14.8 °F 12.8 °F 1021.9 in SW 1.6 mph 3.2 mph 88 % 0.0 in
00:12 17.6 °F 14.7 °F 1021.9 in Calm     83 % 0.0 in
00:20 14.7 °F 12.9 °F 1021.9 in Calm   1.6 mph 89 % 0.0 in
00:30 14.6 °F 12.8 °F 1021.9 in Calm     89 % 0.0 in
00:40 14.5 °F 12.7 °F 1021.9 in Calm     89 % 0.0 in
00:50 14.4 °F 12.6 °F 1021.9 in Calm     89 % 0.0 in
01:00 14.3 °F 12.5 °F 1021.9 in Calm     89 % 0.0 in
01:10 14.1 °F 12.3 °F 1021.9 in Calm     89 % 0.0 in
01:20 14.1 °F 12.3 °F 1021.9 in Calm     89 % 0.0 in
01:30 13.8 °F 12.0 °F 1021.9 in Calm   1.6 mph 89 % 0.0 in
01:40 13.7 °F 11.9 °F 1021.9 in SW 1.6 mph 3.2 mph 89 % 0.0 in
01:50 13.8 °F 12.0 °F 1021.9 in Calm   3.2 mph 89 % 0.0 in
02:00 13.7 °F 11.9 °F 1021.9 in Calm     89 % 0.0 in
02:10 13.6 °F 11.8 °F 1021.9 in Calm   1.6 mph 89 % 0.0 in
02:20 13.7 °F 12.1 °F 1021.9 in SW 1.6 mph 3.2 mph 90 % 0.0 in
02:30 13.5 °F 11.9 °F 1021.9 in Calm     90 % 0.0 in
02:40 13.4 °F 11.8 °F 1021.9 in SW 1.6 mph 3.2 mph 90 % 0.0 in
02:50 13.4 °F 11.8 °F 1021.9 in SW 1.6 mph 1.6 mph 90 % 0.0 in
03:00 13.3 °F 11.7 °F 1020.9 in Calm     90 % 0.0 in
03:10 13.4 °F 11.8 °F 1020.9 in Calm   1.6 mph 90 % 0.0 in
03:20 13.6 °F 12.2 °F 1021.9 in SW 1.6 mph 3.2 mph 91 % 0.0 in
03:30 13.7 °F 12.3 °F 1020.9 in Calm     91 % 0.0 in
03:40 13.7 °F 12.1 °F 1020.9 in Calm   3.2 mph 90 % 0.0 in
03:50 13.8 °F 12.2 °F 1021.9 in SW 1.6 mph 1.6 mph 90 % 0.0 in
04:00 14.0 °F 12.4 °F 1021.9 in SW 1.6 mph 3.2 mph 90 % 0.0 in
04:20 14.3 °F 12.7 °F 1022.9 in SW 3.2 mph 3.2 mph 90 % 0.0 in
04:40 14.9 °F 13.3 °F 1022.9 in SW 3.2 mph 4.8 mph 90 % 0.0 in
04:50 15.5 °F 13.9 °F 1022.9 in SW 1.6 mph 4.8 mph 90 % 0.0 in
05:00 15.9 °F 14.1 °F 1022.9 in SW 1.6 mph 3.2 mph 89 % 0.0 in
05:10 16.4 °F 14.4 °F 1022.9 in SW 1.6 mph 4.8 mph 88 % 0.0 in
05:20 17.1 °F 14.9 °F 1022.9 in Calm   3.2 mph 87 % 0.0 in
10:29 18.1 °F 15.3 °F 1022.9 in SSE 3.5 mph 3.5 mph 84 % 0.0 in
10:30 18.1 °F 15.3 °F 1022.9 in SE 3.7 mph 3.7 mph 84 % 0.0 in
10:35 18.5 °F 15.6 °F 1022.9 in SE 5.8 mph 5.8 mph 83 % 0.0 in
10:40 19.0 °F 15.4 °F 1022.9 in ESE 3.7 mph 3.7 mph 80 % 0.0 in
10:45 19.5 °F 15.8 °F 1023.9 in South 3.7 mph 3.7 mph 79 % 0.0 in
10:50 19.9 °F 16.2 °F 1023.9 in SW 3.7 mph 3.7 mph 79 % 0.0 in
10:55 20.3 °F 15.9 °F 1023.9 in SE 3.7 mph 3.7 mph 76 % 0.0 in
11:00 20.5 °F 16.3 °F 1023.9 in ESE 3.9 mph 3.9 mph 77 % 0.0 in
11:05 20.3 °F 15.7 °F 1023.9 in ENE 3.7 mph 3.7 mph 75 % 0.0 in
11:10 20.3 °F 15.7 °F 1023.9 in East 3.9 mph 3.9 mph 75 % 0.0 in
11:15 20.6 °F 16.0 °F 1022.9 in ESE 3.7 mph 3.7 mph 75 % 0.0 in
11:20 21.1 °F 16.3 °F 1022.9 in SSE 3.7 mph 3.7 mph 74 % 0.0 in
11:25 21.4 °F 16.6 °F 1022.9 in West 3.7 mph 3.7 mph 74 % 0.0 in
11:30 21.4 °F 16.3 °F 1022.9 in ESE 3.9 mph 3.9 mph 73 % 0.0 in
11:35 21.7 °F 16.2 °F 1022.9 in SSE 5.6 mph 5.6 mph 71 % 0.0 in
11:40 22.1 °F 16.8 °F 1022.9 in NW 5.6 mph 5.6 mph 72 % 0.0 in
11:45 22.6 °F 17.1 °F 1022.9 in SSW 2.3 mph   71 % 0.0 in
11:50 22.5 °F 16.8 °F 1022.9 in SW 4.2 mph 4.2 mph 70 % 0.0 in
11:55 22.2 °F 16.4 °F 1022.9 in South 5.6 mph 5.6 mph 70 % 0.0 in
12:00 22.6 °F 16.6 °F 1022.9 in SSE 7.4 mph 7.4 mph 69 % 0.0 in
12:05 23.1 °F 17.1 °F 1022.9 in WNW 7.4 mph 7.4 mph 69 % 0.0 in
12:10 22.8 °F 16.8 °F 1022.9 in South 5.6 mph 5.6 mph 69 % 0.0 in
12:15 23.2 °F 16.9 °F 1022.9 in SW 7.4 mph 7.4 mph 68 % 0.0 in
12:20 23.4 °F 17.2 °F 1022.9 in SW 11.1 mph 11.1 mph 68 % 0.0 in
12:25 23.7 °F 17.2 °F 1022.9 in SW 7.9 mph 7.9 mph 67 % 0.0 in
12:30 24.3 °F 17.1 °F 1022.9 in SSW 4.7 mph 4.7 mph 64 % 0.0 in
12:35 24.2 °F 16.7 °F 1022.9 in SSW 11.1 mph 11.1 mph 63 % 0.0 in
12:40 24.0 °F 16.5 °F 1022.9 in South 9.3 mph 9.3 mph 63 % 0.0 in
12:45 23.9 °F 16.7 °F 1022.9 in SW 9.3 mph 9.3 mph 64 % 0.0 in
12:50 23.7 °F 16.5 °F 1022.9 in SW 11.1 mph 11.1 mph 64 % 0.0 in
12:55 24.2 °F 16.7 °F 1022.9 in SSW 12.6 mph 12.6 mph 63 % 0.0 in
13:00 24.6 °F 16.6 °F 1022.9 in SW 8.7 mph 8.7 mph 61 % 0.0 in
13:05 24.5 °F 16.5 °F 1022.9 in South 5.6 mph 5.6 mph 61 % 0.0 in
13:10 24.3 °F 16.3 °F 1022.9 in West 6.4 mph 6.4 mph 61 % 0.0 in
13:15 24.6 °F 16.6 °F 1022.9 in SW 7.4 mph 7.4 mph 61 % 0.0 in
13:20 24.6 °F 16.3 °F 1022.9 in SSE 3.7 mph 3.7 mph 60 % 0.0 in
13:25 24.7 °F 16.2 °F 1022.9 in SSE 11.1 mph 11.1 mph 59 % 0.0 in
13:30 25.4 °F 16.3 °F 1021.9 in South 4.2 mph 4.2 mph 57 % 0.0 in
13:35 25.6 °F 16.4 °F 1021.9 in SW 9.3 mph 9.3 mph 57 % 0.0 in
13:40 25.5 °F 16.3 °F 1021.9 in SSW 9.3 mph 9.3 mph 57 % 0.0 in
13:45 25.7 °F 16.3 °F 1021.9 in SSW 5.6 mph 5.6 mph 56 % 0.0 in
13:50 25.7 °F 16.0 °F 1021.9 in WSW 11.1 mph 11.1 mph 55 % 0.0 in
13:55 26.0 °F 16.3 °F 1021.9 in SW 5.6 mph 5.6 mph 55 % 0.0 in
14:00 26.2 °F 16.7 °F 1021.9 in West 11.1 mph 11.1 mph 56 % 0.0 in
14:05 25.4 °F 15.4 °F 1021.9 in SW 7.6 mph 7.6 mph 54 % 0.0 in
14:10 25.9 °F 15.9 °F 1021.9 in SW 7.4 mph 7.4 mph 54 % 0.0 in
14:15 25.8 °F 15.8 °F 1021.9 in South 9.3 mph 9.3 mph 54 % 0.0 in
14:20 26.1 °F 16.1 °F 1021.9 in SW 13.0 mph 13.0 mph 54 % 0.0 in
14:25 25.8 °F 15.8 °F 1021.9 in SW 11.1 mph 11.1 mph 54 % 0.0 in
14:30 25.7 °F 15.7 °F 1021.9 in SW 5.6 mph 5.6 mph 54 % 0.0 in
14:35 25.7 °F 15.7 °F 1021.9 in WSW 14.8 mph 14.8 mph 54 % 0.0 in
14:40 25.8 °F 15.8 °F 1021.9 in SSE 11.1 mph 11.1 mph 54 % 0.0 in
14:45 25.7 °F 15.7 °F 1021.9 in WSW 11.1 mph 11.1 mph 54 % 0.0 in
14:50 25.7 °F 15.7 °F 1021.9 in South 7.6 mph 7.6 mph 54 % 0.0 in
14:55 25.4 °F 15.4 °F 1021.9 in SW 14.8 mph 14.8 mph 54 % 0.0 in
15:00 25.3 °F 15.3 °F 1021.9 in SSE 13.0 mph 13.0 mph 54 % 0.0 in
15:05 25.6 °F 15.6 °F 1021.9 in SSW 9.3 mph 9.3 mph 54 % 0.0 in
15:10 25.6 °F 15.6 °F 1021.9 in SW 11.1 mph 11.1 mph 54 % 0.0 in
15:15 26.0 °F 16.3 °F 1021.9 in SW 7.9 mph 7.9 mph 55 % 0.0 in
15:20 25.6 °F 15.6 °F 1021.9 in WSW 15.1 mph 15.1 mph 54 % 0.0 in
15:25 25.3 °F 15.3 °F 1021.9 in SSE 14.8 mph 14.8 mph 54 % 0.0 in
15:30 25.6 °F 15.9 °F 1020.9 in WSW 9.3 mph 9.3 mph 55 % 0.0 in
15:35 25.7 °F 15.7 °F 1020.9 in West 7.4 mph 7.4 mph 54 % 0.0 in
15:40 25.8 °F 15.8 °F 1020.9 in SW 9.3 mph 9.3 mph 54 % 0.0 in
15:45 25.7 °F 15.7 °F 1020.9 in SSW 7.4 mph 7.4 mph 54 % 0.0 in
15:50 25.6 °F 15.6 °F 1020.9 in SSE 13.0 mph 13.0 mph 54 % 0.0 in
15:55 25.5 °F 15.5 °F 1020.9 in SSW 16.1 mph 16.1 mph 54 % 0.0 in
16:00 25.5 °F 15.5 °F 1021.9 in WSW 15.6 mph 15.6 mph 54 % 0.0 in
16:05 25.4 °F 15.1 °F 1021.9 in SW 16.7 mph 16.7 mph 53 % 0.0 in
16:10 25.4 °F 15.1 °F 1021.9 in SSW 10.0 mph 10.0 mph 53 % 0.0 in
16:11 25.4 °F 15.1 °F 1021.9 in SSW 9.3 mph 9.3 mph 53 % 0.0 in
16:16 25.5 °F 15.5 °F 1020.9 in South 9.3 mph 9.3 mph 54 % 0.0 in
16:21 25.3 °F 15.1 °F 1020.9 in SW 9.0 mph 9.0 mph 53 % 0.0 in
16:26 25.5 °F 15.5 °F 1020.9 in SSE 13.0 mph 13.0 mph 54 % 0.0 in
16:36 25.6 °F 15.6 °F 1021.9 in SW 11.1 mph 11.1 mph 54 % 0.0 in
16:41 25.5 °F 15.5 °F 1021.9 in WSW 9.3 mph 9.3 mph 54 % 0.0 in
16:46 25.4 °F 15.4 °F 1020.9 in SSE 14.8 mph 14.8 mph 54 % 0.0 in
16:51 25.2 °F 15.2 °F 1020.9 in South 13.0 mph 13.0 mph 54 % 0.0 in
16:56 25.1 °F 15.1 °F 1020.9 in SW 13.0 mph 13.0 mph 54 % 0.0 in
17:01 25.2 °F 15.2 °F 1021.9 in WSW 20.4 mph 20.4 mph 54 % 0.0 in
17:06 24.9 °F 15.2 °F 1021.9 in WSW 13.0 mph 13.0 mph 55 % 0.0 in
17:11 24.9 °F 15.2 °F 1021.9 in South 14.8 mph 14.8 mph 55 % 0.0 in
17:16 24.9 °F 15.5 °F 1021.9 in WSW 9.7 mph 9.7 mph 56 % 0.0 in
17:21 24.7 °F 15.3 °F 1021.9 in SW 13.0 mph 13.0 mph 56 % 0.0 in
17:26 24.4 °F 15.3 °F 1021.9 in SW 16.7 mph 16.7 mph 57 % 0.0 in
17:31 24.5 °F 15.4 °F 1020.9 in SW 10.0 mph 10.0 mph 57 % 0.0 in
17:36 24.2 °F 15.2 °F 1020.9 in SSW 16.7 mph 16.7 mph 57 % 0.0 in
17:41 24.0 °F 15.2 °F 1020.9 in SW 9.3 mph 9.3 mph 58 % 0.0 in
17:46 24.0 °F 15.2 °F 1021.9 in SW 9.3 mph 9.3 mph 58 % 0.0 in
17:51 23.8 °F 15.6 °F 1021.9 in SW 16.7 mph 16.7 mph 60 % 0.0 in
17:56 23.6 °F 15.6 °F 1021.9 in South 9.3 mph 9.3 mph 61 % 0.0 in
18:01 23.6 °F 15.6 °F 1021.9 in SW 13.7 mph 13.7 mph 61 % 0.0 in
18:06 23.6 °F 15.6 °F 1021.9 in South 7.4 mph 7.4 mph 61 % 0.0 in
18:11 23.6 °F 15.6 °F 1021.9 in West 7.4 mph 7.4 mph 61 % 0.0 in
18:16 23.2 °F 15.5 °F 1021.9 in SW 14.8 mph 14.8 mph 62 % 0.0 in
18:21 23.1 °F 15.4 °F 1021.9 in WSW 9.3 mph 9.3 mph 62 % 0.0 in
18:26 23.1 °F 15.4 °F 1021.9 in SW 9.3 mph 9.3 mph 62 % 0.0 in
18:31 22.8 °F 15.4 °F 1021.9 in WSW 9.3 mph 9.3 mph 63 % 0.0 in
18:36 22.7 °F 15.3 °F 1021.9 in South 7.4 mph 7.4 mph 63 % 0.0 in
18:41 22.5 °F 15.3 °F 1021.9 in West 7.4 mph 7.4 mph 64 % 0.0 in
18:46 22.3 °F 15.4 °F 1021.9 in SW 13.0 mph 13.0 mph 65 % 0.0 in
18:51 22.1 °F 15.4 °F 1021.9 in WSW 11.1 mph 11.1 mph 66 % 0.0 in
18:56 22.0 °F 15.3 °F 1021.9 in West 11.1 mph 11.1 mph 66 % 0.0 in
19:01 21.8 °F 15.4 °F 1021.9 in SW 9.3 mph 9.3 mph 67 % 0.0 in
19:06 21.6 °F 15.4 °F 1021.9 in SSW 7.4 mph 7.4 mph 68 % 0.0 in
19:11 21.5 °F 15.3 °F 1021.9 in SW 9.7 mph 9.7 mph 68 % 0.0 in
19:16 21.4 °F 15.5 °F 1021.9 in SW 7.4 mph 7.4 mph 69 % 0.0 in
19:20 18.3 °F 15.6 °F 1022.9 in Calm     84 % 0.0 in
19:21 21.3 °F 15.4 °F 1021.9 in WSW 11.1 mph 11.1 mph 69 % 0.0 in
19:26 21.1 °F 15.4 °F 1021.9 in South 9.5 mph 9.5 mph 70 % 0.0 in
19:30 18.2 °F 15.6 °F 1023.9 in Calm     85 % 0.0 in
19:36 20.9 °F 15.4 °F 1021.9 in SSW 5.8 mph 5.8 mph 71 % 0.0 in
19:40 18.2 °F 15.6 °F 1023.9 in Calm   1.6 mph 85 % 0.0 in
19:41 20.8 °F 15.3 °F 1021.9 in WSW 7.4 mph 7.4 mph 71 % 0.0 in
19:46 20.6 °F 15.2 °F 1021.9 in SW 11.1 mph 11.1 mph 71 % 0.0 in
19:50 18.1 °F 15.6 °F 1022.9 in Calm     85 % 0.0 in
19:51 20.5 °F 15.3 °F 1021.9 in SW 7.4 mph 7.4 mph 72 % 0.0 in
19:56 20.4 °F 15.2 °F 1021.9 in WSW 9.3 mph 9.3 mph 72 % 0.0 in
20:00 17.9 °F 15.5 °F 1023.9 in Calm     86 % 0.0 in
20:06 20.3 °F 15.3 °F 1021.9 in West 7.4 mph 7.4 mph 73 % 0.0 in
20:10 17.8 °F 15.4 °F 1023.9 in Calm   1.6 mph 86 % 0.0 in
20:11 20.2 °F 15.2 °F 1021.9 in WSW 9.3 mph 9.3 mph 73 % 0.0 in
20:16 20.1 °F 15.1 °F 1022.9 in WSW 9.3 mph 9.3 mph 73 % 0.0 in
20:20 17.6 °F 15.2 °F 1022.9 in Calm     86 % 0.0 in
20:21 20.1 °F 15.3 °F 1022.9 in SW 3.9 mph 3.9 mph 74 % 0.0 in
20:26 20.0 °F 15.2 °F 1022.9 in SW 5.6 mph 5.6 mph 74 % 0.0 in
20:30 17.5 °F 15.1 °F 1022.9 in Calm     86 % 0.0 in
20:31 19.9 °F 15.3 °F 1022.9 in SSW 5.6 mph 5.6 mph 75 % 0.0 in
20:36 19.9 °F 15.3 °F 1022.9 in South 5.8 mph 5.8 mph 75 % 0.0 in
20:40 17.4 °F 15.1 °F 1022.9 in Calm     86 % 0.0 in
20:41 19.7 °F 15.3 °F 1022.9 in SW 5.6 mph 5.6 mph 76 % 0.0 in
20:46 19.7 °F 15.3 °F 1022.9 in SW 5.6 mph 5.6 mph 76 % 0.0 in
20:50 17.3 °F 15.1 °F 1023.9 in Calm     87 % 0.0 in
20:51 19.6 °F 15.3 °F 1022.9 in WSW 3.7 mph 3.7 mph 76 % 0.0 in
20:56 19.5 °F 15.2 °F 1022.9 in SSW 1.9 mph 1.9 mph 76 % 0.0 in
21:01 19.5 °F 15.3 °F 1022.9 in WSW 3.7 mph 3.7 mph 77 % 0.0 in
21:06 19.5 °F 15.3 °F 1022.9 in West 7.4 mph 7.4 mph 77 % 0.0 in
21:10 16.8 °F 14.6 °F 1023.9 in Calm   1.6 mph 87 % 0.0 in
21:11 19.4 °F 15.3 °F 1022.9 in WSW 3.7 mph 3.7 mph 77 % 0.0 in
21:16 19.3 °F 15.2 °F 1022.9 in WSW 1.9 mph   77 % 0.0 in
21:20 16.7 °F 14.5 °F 1023.9 in Calm   3.2 mph 87 % 0.0 in
21:21 19.3 °F 15.2 °F 1022.9 in SW 3.7 mph 3.7 mph 77 % 0.0 in
21:26 19.2 °F 15.3 °F 1022.9 in WSW 2.3 mph 2.3 mph 78 % 0.0 in
21:30 16.6 °F 14.6 °F 1023.9 in Calm     88 % 0.0 in
21:31 19.2 °F 15.1 °F 1022.9 in SW 5.6 mph 5.6 mph 77 % 0.0 in
21:36 19.1 °F 15.2 °F 1022.9 in WSW 4.2 mph 4.2 mph 78 % 0.0 in
21:40 16.4 °F 14.4 °F 1023.9 in Calm     88 % 0.0 in
21:41 19.1 °F 15.2 °F 1022.9 in WSW 3.7 mph 3.7 mph 78 % 0.0 in
21:46 19.0 °F 15.3 °F 1022.9 in SW 4.7 mph 4.7 mph 79 % 0.0 in
21:50 16.3 °F 14.3 °F 1023.9 in Calm     88 % 0.0 in
21:51 19.0 °F 15.1 °F 1022.9 in WNW 3.9 mph 3.9 mph 78 % 0.0 in
21:56 19.0 °F 15.3 °F 1022.9 in West 5.6 mph 5.6 mph 79 % 0.0 in
22:00 16.3 °F 14.3 °F 1022.9 in Calm     88 % 0.0 in
22:01 19.0 °F 15.3 °F 1022.9 in SW 3.7 mph 3.7 mph 79 % 0.0 in
22:06 19.0 °F 15.3 °F 1022.9 in SW 3.7 mph 3.7 mph 79 % 0.0 in
22:10 16.2 °F 14.4 °F 1022.9 in Calm     89 % 0.0 in
22:11 19.0 °F 15.4 °F 1022.9 in SW 2.3 mph 2.3 mph 80 % 0.0 in
22:16 18.9 °F 15.6 °F 1023.9 in SW 4.7 mph 4.7 mph 81 % 0.0 in
22:20 16.2 °F 14.4 °F 1022.9 in Calm     89 % 0.0 in
22:21 18.9 °F 15.6 °F 1023.9 in SW 3.7 mph 3.7 mph 81 % 0.0 in
22:26 18.8 °F 15.4 °F 1023.9 in SW 3.7 mph 3.7 mph 81 % 0.0 in
22:30 16.1 °F 14.3 °F 1022.9 in Calm     89 % 0.0 in
22:31 18.8 °F 15.7 °F 1023.9 in WSW 3.5 mph 3.5 mph 82 % 0.0 in
22:40 15.8 °F 14.0 °F 1022.9 in Calm     89 % 0.0 in
22:41 18.7 °F 15.6 °F 1023.9 in West 1.9 mph   82 % 0.0 in
22:46 18.7 °F 15.6 °F 1023.9 in West 3.7 mph   82 % 0.0 in
22:51 18.7 °F 15.8 °F 1023.9 in Calm     83 % 0.0 in
22:52 18.7 °F 15.8 °F 1023.9 in Calm     83 % 0.0 in
22:57 18.6 °F 15.7 °F 1023.9 in Calm     83 % 0.0 in
23:00 15.5 °F 13.5 °F 1023.9 in SSE 1.6 mph 3.2 mph 88 % 0.0 in
23:02 18.6 °F 15.7 °F 1023.9 in Calm     83 % 0.0 in
23:07 18.6 °F 15.7 °F 1023.9 in West 2.6 mph 2.6 mph 83 % 0.0 in
23:10 15.5 °F 13.7 °F 1023.9 in SW 1.6 mph 3.2 mph 89 % 0.0 in
23:12 18.6 °F 15.7 °F 1023.9 in West 3.7 mph 3.7 mph 83 % 0.0 in
23:17 18.6 °F 15.4 °F 1023.9 in West 3.7 mph 3.7 mph 82 % 0.0 in
23:20 15.4 °F 13.6 °F 1023.9 in SW 1.6 mph 3.2 mph 89 % 0.0 in
23:22 18.5 °F 15.6 °F 1023.9 in Calm     83 % 0.0 in
23:27 18.5 °F 15.6 °F 1023.9 in West 1.9 mph   83 % 0.0 in
23:32 18.5 °F 15.6 °F 1023.9 in West 3.7 mph 3.7 mph 83 % 0.0 in
23:37 18.5 °F 15.6 °F 1023.9 in West 2.3 mph 2.3 mph 83 % 0.0 in
23:40 15.3 °F 13.5 °F 1023.9 in SW 1.6 mph 3.2 mph 89 % 0.0 in
23:42 18.5 °F 15.6 °F 1023.9 in West 2.3 mph 2.3 mph 83 % 0.0 in
23:47 18.5 °F 15.7 °F 1023.9 in Calm     84 % 0.0 in
23:50 15.1 °F 13.4 °F 1023.9 in Calm   3.2 mph 90 % 0.0 in
23:52 18.4 °F 15.7 °F 1023.9 in Calm     84 % 0.0 in
23:57 18.3 °F 15.6 °F 1023.9 in Calm     84 % 0.0 in
Meteo Sesrovires
Elogis d' Weather Underground - 1.5 mb

Guio original per  Jim McMurry - jmcmurry@mwt.net Adaptat per a la plantilla per  Wim van der Kuil - Leuven-Template.eu

Trobareu la nostra informacio del temps tambe a:

Weather Underground

AWEKAS